Decoded Metar for LESB (Son Bonet in SPAIN) (IATA:N/A) | Meteo·Mobile Aviation Weather
aviador You're here:

LESB Decoded Metar

Son Bonet in SPAIN
Report Time2020-02-23 11:00:00
UTC Time2020-02-23 11:21:22
Flight Rules vfr VFR
Wind150° at 03 kt
W.Decomp.*RWY 06: 3.0 kt RCW
Visibility9999 m
Phenomena:N/A
Clouds:N/A
Expected CloudBase > 3,600 ft AGL from Temp-Dew spread
CeilingNone
Temp18°C (ISA +3)
Dew Point09°C (56% RH)
AAT16.7°C
QNH1035 hPa
Density Alt-33 ft
Elevation157 ft
Report Wrong Elevation
Raw Report
METAR LESB 231100Z AUTO 15003KT 120V200 CAVOK 18/09 Q1035=

Extra information for LESB:More info

Airport Information Weather charts Add Link Nearby Venues Social comments